createdAt,value
2018-07-05T00:00:50.802Z,0.00
2018-07-05T00:01:50.381Z,0.00
2018-07-05T00:02:50.893Z,0.00
2018-07-05T00:03:50.958Z,0.00
2018-07-05T00:04:50.798Z,0.00
2018-07-05T00:05:50.967Z,0.00
2018-07-05T00:06:50.881Z,0.00
2018-07-05T00:07:50.690Z,0.00
2018-07-05T00:08:50.694Z,0.00
2018-07-05T00:09:50.791Z,0.00
2018-07-05T00:10:50.715Z,0.00
2018-07-05T00:11:50.632Z,0.00
2018-07-05T00:12:50.759Z,0.00
2018-07-05T00:13:50.701Z,0.00
2018-07-05T00:14:50.730Z,0.00
2018-07-05T00:15:50.736Z,0.00
2018-07-05T00:16:50.744Z,0.00
2018-07-05T00:17:50.747Z,0.00
2018-07-05T00:18:50.760Z,0.00
2018-07-05T00:19:50.944Z,0.00
2018-07-05T00:20:50.870Z,0.00
2018-07-05T00:21:50.717Z,0.00
2018-07-05T00:22:51.141Z,0.00
2018-07-05T00:23:50.897Z,0.00
2018-07-05T00:24:50.868Z,0.00
2018-07-05T00:25:51.000Z,0.00
2018-07-05T00:26:50.963Z,0.00
2018-07-05T00:27:50.873Z,0.00
2018-07-05T00:28:50.945Z,0.00
2018-07-05T00:29:50.983Z,0.00
2018-07-05T00:30:50.970Z,0.00
2018-07-05T00:31:50.979Z,0.00
2018-07-05T00:32:50.665Z,0.00
2018-07-05T00:33:50.775Z,0.00
2018-07-05T00:34:50.780Z,0.00
2018-07-05T00:35:50.857Z,0.00
2018-07-05T00:36:50.775Z,0.00
2018-07-05T00:37:50.853Z,0.00
2018-07-05T00:38:50.765Z,0.00
2018-07-05T00:39:50.911Z,0.00
2018-07-05T00:40:50.820Z,0.00
2018-07-05T00:41:50.811Z,0.00
2018-07-05T00:42:50.909Z,0.00
2018-07-05T00:43:50.769Z,0.00
2018-07-05T00:44:50.893Z,0.00
2018-07-05T00:45:50.901Z,0.00
2018-07-05T00:46:50.903Z,0.00
2018-07-05T00:47:50.898Z,0.00
2018-07-05T00:48:50.873Z,0.00
2018-07-05T00:49:50.858Z,0.00
2018-07-05T00:50:50.894Z,0.00
2018-07-05T00:51:50.998Z,0.00
2018-07-05T00:52:50.973Z,0.00
2018-07-05T00:53:51.135Z,0.00
2018-07-05T00:54:50.880Z,0.00
2018-07-05T00:55:53.277Z,0.00
2018-07-05T00:56:50.892Z,0.00
2018-07-05T00:57:50.895Z,0.00
2018-07-05T00:58:50.858Z,0.00
2018-07-05T00:59:50.439Z,0.00
2018-07-05T01:00:50.810Z,0.00
2018-07-05T01:01:51.084Z,0.00
2018-07-05T01:02:51.108Z,0.00
2018-07-05T01:03:51.117Z,0.00
2018-07-05T01:04:51.092Z,0.00
2018-07-05T01:05:51.139Z,0.00
2018-07-05T01:06:51.132Z,0.00
2018-07-05T01:07:51.083Z,0.00
2018-07-05T01:08:51.102Z,0.00
2018-07-05T01:09:51.129Z,0.00
2018-07-05T01:10:52.960Z,0.00
2018-07-05T01:11:51.120Z,0.00
2018-07-05T01:12:51.141Z,0.00
2018-07-05T01:13:51.060Z,0.00
2018-07-05T01:14:51.156Z,0.00
2018-07-05T01:15:51.149Z,0.00
2018-07-05T01:16:51.224Z,0.00
2018-07-05T01:17:51.156Z,0.00
2018-07-05T01:18:51.120Z,0.00
2018-07-05T01:19:51.174Z,0.00
2018-07-05T01:20:51.118Z,0.00
2018-07-05T01:21:50.557Z,0.00
2018-07-05T01:22:51.151Z,0.00
2018-07-05T01:23:51.138Z,0.00
2018-07-05T01:24:51.092Z,0.00
2018-07-05T01:25:51.092Z,0.00
2018-07-05T01:26:51.142Z,0.00
2018-07-05T01:27:51.100Z,0.00
2018-07-05T01:28:51.120Z,0.00
2018-07-05T01:29:51.088Z,0.00
2018-07-05T01:30:51.092Z,0.00
2018-07-05T01:31:51.094Z,0.00
2018-07-05T01:32:51.093Z,0.00
2018-07-05T01:33:51.149Z,0.00
2018-07-05T01:34:51.040Z,0.00
2018-07-05T01:35:51.143Z,0.00
2018-07-05T01:36:51.067Z,0.00
2018-07-05T01:37:51.117Z,0.00
2018-07-05T01:38:51.149Z,0.00
2018-07-05T01:39:51.155Z,0.00
2018-07-05T01:40:51.128Z,0.00
2018-07-05T01:41:51.127Z,0.00
2018-07-05T01:42:51.178Z,0.00
2018-07-05T01:43:50.579Z,0.00
2018-07-05T01:44:51.128Z,0.00
2018-07-05T01:45:52.938Z,0.00
2018-07-05T01:46:51.118Z,0.00
2018-07-05T01:47:51.174Z,0.00
2018-07-05T01:48:51.149Z,0.00
2018-07-05T01:49:51.069Z,0.00
2018-07-05T01:50:51.099Z,0.00
2018-07-05T01:51:51.106Z,0.00
2018-07-05T01:52:51.041Z,0.00
2018-07-05T01:53:51.101Z,0.00
2018-07-05T01:54:51.119Z,0.00
2018-07-05T01:55:51.127Z,0.00
2018-07-05T01:56:51.060Z,0.00
2018-07-05T01:57:51.161Z,0.00
2018-07-05T01:58:51.039Z,0.00
2018-07-05T01:59:51.141Z,0.00
2018-07-05T02:00:51.152Z,0.00
2018-07-05T02:01:51.078Z,0.00
2018-07-05T02:02:51.170Z,0.00
2018-07-05T02:03:51.089Z,0.00
2018-07-05T02:04:51.076Z,0.00
2018-07-05T02:05:51.101Z,0.00
2018-07-05T02:06:51.139Z,0.00
2018-07-05T02:07:51.159Z,0.00
2018-07-05T02:08:51.105Z,0.00
2018-07-05T02:09:51.118Z,0.00
2018-07-05T02:10:51.125Z,0.00
2018-07-05T02:11:51.213Z,0.00
2018-07-05T02:12:51.118Z,0.00
2018-07-05T02:13:51.108Z,0.00
2018-07-05T02:14:51.468Z,0.00
2018-07-05T02:15:51.190Z,0.00
2018-07-05T02:16:51.123Z,0.00
2018-07-05T02:17:51.153Z,0.00
2018-07-05T02:18:51.044Z,0.00
2018-07-05T02:19:51.129Z,0.00
2018-07-05T02:20:51.087Z,0.00
2018-07-05T02:21:51.114Z,0.00
2018-07-05T02:22:51.124Z,0.00
2018-07-05T02:23:51.140Z,0.00
2018-07-05T02:24:51.111Z,0.00
2018-07-05T02:25:51.201Z,0.00
2018-07-05T02:26:51.084Z,0.00
2018-07-05T02:27:51.175Z,0.00
2018-07-05T02:28:51.132Z,0.00
2018-07-05T02:29:51.199Z,0.00
2018-07-05T02:30:50.643Z,0.00
2018-07-05T02:31:53.043Z,0.00
2018-07-05T02:32:51.166Z,0.00
2018-07-05T02:33:50.660Z,0.00
2018-07-05T02:34:51.116Z,0.00
2018-07-05T02:35:51.128Z,0.00
2018-07-05T02:36:51.185Z,0.00
2018-07-05T02:37:51.123Z,0.00
2018-07-05T02:38:51.198Z,0.00
2018-07-05T02:39:51.119Z,0.00
2018-07-05T02:40:51.109Z,4.00
2018-07-05T02:41:51.100Z,4.00
2018-07-05T02:42:51.095Z,4.00
2018-07-05T02:43:51.176Z,0.00
2018-07-05T02:44:51.109Z,0.00
2018-07-05T02:45:51.179Z,4.00
2018-07-05T02:46:51.164Z,4.00
2018-07-05T02:47:51.149Z,4.00
2018-07-05T02:48:51.128Z,4.00
2018-07-05T02:49:51.118Z,4.00
2018-07-05T02:50:51.133Z,4.00
2018-07-05T02:51:51.109Z,8.00
2018-07-05T02:52:51.104Z,4.00
2018-07-05T02:53:51.139Z,8.00
2018-07-05T02:54:51.133Z,8.00
2018-07-05T02:55:51.199Z,12.00
2018-07-05T02:56:51.196Z,12.00
2018-07-05T02:57:51.107Z,12.00
2018-07-05T02:58:51.173Z,12.00
2018-07-05T02:59:51.108Z,16.00
2018-07-05T03:00:51.116Z,16.00
2018-07-05T03:01:51.240Z,20.00
2018-07-05T03:02:51.122Z,20.00
2018-07-05T03:03:51.229Z,24.00
2018-07-05T03:04:51.203Z,28.00
2018-07-05T03:05:51.207Z,28.00
2018-07-05T03:06:51.108Z,36.00
2018-07-05T03:07:51.086Z,36.00
2018-07-05T03:08:51.156Z,40.00
2018-07-05T03:09:50.689Z,40.00
2018-07-05T03:10:51.078Z,48.00
2018-07-05T03:11:51.210Z,52.00
2018-07-05T03:12:51.210Z,56.00
2018-07-05T03:13:51.123Z,60.00
2018-07-05T03:14:51.102Z,68.00
2018-07-05T03:15:50.715Z,72.00
2018-07-05T03:16:51.184Z,80.00
2018-07-05T03:17:51.101Z,84.00
2018-07-05T03:18:51.159Z,88.00
2018-07-05T03:19:51.179Z,96.00
2018-07-05T03:20:51.174Z,100.00
2018-07-05T03:21:51.247Z,108.00
2018-07-05T03:22:51.143Z,116.00
2018-07-05T03:23:51.200Z,124.00
2018-07-05T03:24:51.192Z,132.00
2018-07-05T03:25:51.194Z,136.00
2018-07-05T03:26:51.176Z,148.00
2018-07-05T03:27:51.204Z,156.00
2018-07-05T03:28:51.213Z,164.00
2018-07-05T03:29:51.200Z,176.00
2018-07-05T03:30:51.084Z,184.00
2018-07-05T03:31:51.182Z,192.00
2018-07-05T03:32:53.349Z,200.00
2018-07-05T03:33:51.113Z,208.00
2018-07-05T03:34:51.135Z,216.00
2018-07-05T03:35:50.749Z,228.00
2018-07-05T03:36:51.185Z,236.00
2018-07-05T03:37:51.175Z,248.00
2018-07-05T03:38:51.222Z,260.00
2018-07-05T03:39:51.224Z,264.00
2018-07-05T03:40:51.185Z,280.00
2018-07-05T03:41:51.189Z,288.00
2018-07-05T03:42:51.182Z,296.00
2018-07-05T03:43:51.203Z,308.00
2018-07-05T03:44:51.198Z,320.00
2018-07-05T03:45:51.192Z,332.00
2018-07-05T03:46:51.179Z,344.00
2018-07-05T03:47:51.218Z,356.00
2018-07-05T03:48:51.196Z,368.00
2018-07-05T03:49:51.190Z,380.00
2018-07-05T03:50:51.214Z,392.00
2018-07-05T03:51:51.189Z,404.00
2018-07-05T03:52:51.239Z,420.00
2018-07-05T03:53:51.239Z,436.00
2018-07-05T03:54:51.232Z,452.00
2018-07-05T03:55:51.230Z,468.00
2018-07-05T03:56:50.709Z,488.00
2018-07-05T03:57:51.219Z,508.00
2018-07-05T03:58:51.164Z,536.00
2018-07-05T03:59:51.178Z,560.00
2018-07-05T04:00:51.180Z,584.00
2018-07-05T04:01:51.176Z,604.00
2018-07-05T04:02:51.220Z,632.00
2018-07-05T04:03:51.195Z,656.00
2018-07-05T04:04:51.164Z,672.00
2018-07-05T04:05:51.195Z,680.00
2018-07-05T04:06:51.212Z,696.00
2018-07-05T04:07:51.209Z,716.00
2018-07-05T04:08:51.210Z,736.00
2018-07-05T04:09:51.222Z,752.00
2018-07-05T04:10:50.704Z,772.00
2018-07-05T04:11:51.186Z,792.00
2018-07-05T04:12:51.196Z,816.00
2018-07-05T04:13:51.196Z,844.00
2018-07-05T04:14:51.168Z,868.00
2018-07-05T04:15:51.238Z,900.00
2018-07-05T04:16:51.230Z,932.00
2018-07-05T04:17:51.239Z,960.00
2018-07-05T04:18:51.181Z,976.00
2018-07-05T04:19:51.227Z,988.00
2018-07-05T04:20:51.241Z,1004.00
2018-07-05T04:21:51.101Z,996.00
2018-07-05T04:22:51.786Z,992.00
2018-07-05T04:23:51.134Z,976.00
2018-07-05T04:24:51.172Z,956.00
2018-07-05T04:25:51.699Z,944.00
2018-07-05T04:26:50.691Z,940.00
2018-07-05T04:27:51.179Z,944.00
2018-07-05T04:28:51.690Z,932.00
2018-07-05T04:29:51.684Z,940.00
2018-07-05T04:30:50.774Z,940.00
2018-07-05T04:31:51.221Z,932.00
2018-07-05T04:32:51.213Z,940.00
2018-07-05T04:33:51.208Z,944.00
2018-07-05T04:34:51.192Z,956.00
2018-07-05T04:35:51.261Z,964.00
2018-07-05T04:36:51.215Z,976.00
2018-07-05T04:37:51.107Z,988.00
2018-07-05T04:38:51.221Z,1000.00
2018-07-05T04:39:51.197Z,1012.00
2018-07-05T04:40:51.200Z,1028.00
2018-07-05T04:41:51.242Z,1040.00
2018-07-05T04:42:51.207Z,1052.00
2018-07-05T04:43:51.288Z,1060.00
2018-07-05T04:44:51.202Z,1068.00
2018-07-05T04:45:51.239Z,1080.00
2018-07-05T04:46:51.172Z,1088.00
2018-07-05T04:47:51.107Z,1092.00
2018-07-05T04:48:51.186Z,1100.00
2018-07-05T04:49:51.206Z,1112.00
2018-07-05T04:50:51.189Z,1124.00
2018-07-05T04:51:51.198Z,1128.00
2018-07-05T04:52:51.132Z,1140.00
2018-07-05T04:53:51.223Z,1152.00
2018-07-05T04:54:51.204Z,1164.00
2018-07-05T04:55:51.195Z,1172.00
2018-07-05T04:56:51.262Z,1180.00
2018-07-05T04:57:51.233Z,1192.00
2018-07-05T04:58:51.256Z,1196.00
2018-07-05T04:59:51.219Z,1200.00
2018-07-05T05:00:51.708Z,1204.00
2018-07-05T05:01:51.161Z,1212.00
2018-07-05T05:02:51.091Z,1220.00
2018-07-05T05:03:51.710Z,1232.00
2018-07-05T05:04:51.206Z,1260.00
2018-07-05T05:05:51.224Z,1284.00
2018-07-05T05:06:51.693Z,1308.00
2018-07-05T05:07:51.127Z,1332.00
2018-07-05T05:09:51.896Z,1388.00
2018-07-05T05:10:51.701Z,1424.00
2018-07-05T05:11:51.722Z,1432.00
2018-07-05T05:12:52.595Z,1520.00
2018-07-05T05:13:51.229Z,1524.00
2018-07-05T05:14:51.284Z,1564.00
2018-07-05T05:15:51.710Z,1572.00
2018-07-05T05:16:50.953Z,1572.00
2018-07-05T05:17:51.709Z,1548.00
2018-07-05T05:18:51.204Z,1536.00
2018-07-05T05:19:51.432Z,1512.00
2018-07-05T05:20:51.174Z,1500.00
2018-07-05T05:21:51.684Z,1480.00
2018-07-05T05:22:51.460Z,1460.00
2018-07-05T05:23:51.222Z,1400.00
2018-07-05T05:24:51.459Z,1432.00
2018-07-05T05:25:51.466Z,1412.00
2018-07-05T05:26:51.996Z,1392.00
2018-07-05T05:27:51.231Z,1376.00
2018-07-05T05:28:51.231Z,1356.00
2018-07-05T05:29:51.154Z,1328.00
2018-07-05T05:30:51.196Z,1312.00
2018-07-05T05:31:51.170Z,1244.00
2018-07-05T05:32:51.418Z,1224.00
2018-07-05T05:33:51.813Z,1236.00
2018-07-05T05:34:51.627Z,1240.00
2018-07-05T05:35:51.235Z,1256.00
2018-07-05T05:36:51.226Z,1320.00
2018-07-05T05:37:51.229Z,1316.00
2018-07-05T05:38:53.019Z,1380.00
2018-07-05T05:39:51.200Z,1424.00
2018-07-05T05:40:51.221Z,1444.00
2018-07-05T05:41:51.228Z,1536.00
2018-07-05T05:42:51.252Z,1560.00
2018-07-05T05:43:51.229Z,1568.00
2018-07-05T05:44:51.209Z,1604.00
2018-07-05T05:45:51.233Z,1628.00
2018-07-05T05:46:51.719Z,1636.00
2018-07-05T05:47:51.198Z,1644.00
2018-07-05T05:48:51.215Z,1640.00
2018-07-05T05:49:51.217Z,1672.00
2018-07-05T05:50:53.570Z,1672.00
2018-07-05T05:51:51.449Z,1684.00
2018-07-05T05:52:50.783Z,1692.00
2018-07-05T05:53:51.288Z,1708.00
2018-07-05T05:54:51.246Z,1712.00
2018-07-05T05:55:51.733Z,1724.00
2018-07-05T05:56:50.754Z,1732.00
2018-07-05T05:57:51.862Z,1744.00
2018-07-05T05:58:50.851Z,1752.00
2018-07-05T05:59:51.250Z,1768.00
2018-07-05T06:00:51.225Z,1792.00
2018-07-05T06:01:51.170Z,1812.00
2018-07-05T06:02:50.875Z,1816.00
2018-07-05T06:03:51.173Z,1852.00
2018-07-05T06:04:51.806Z,1912.00
2018-07-05T06:05:51.226Z,2040.00
2018-07-05T06:06:51.285Z,1992.00
2018-07-05T06:07:51.222Z,1900.00
2018-07-05T06:08:57.232Z,1908.00
2018-07-05T06:09:51.142Z,1916.00
2018-07-05T06:10:51.219Z,1928.00
2018-07-05T06:11:51.206Z,1940.00
2018-07-05T06:12:51.256Z,1956.00
2018-07-05T06:13:51.200Z,1968.00
2018-07-05T06:14:51.267Z,1980.00
2018-07-05T06:15:51.277Z,1996.00
2018-07-05T06:16:51.403Z,2008.00
2018-07-05T06:17:51.731Z,2020.00
2018-07-05T06:18:52.353Z,2040.00
2018-07-05T06:19:51.346Z,2056.00
2018-07-05T06:20:51.249Z,2076.00
2018-07-05T06:21:51.732Z,2100.00
2018-07-05T06:22:51.276Z,2116.00
2018-07-05T06:23:51.749Z,2128.00
2018-07-05T06:24:51.480Z,2144.00
2018-07-05T06:25:51.223Z,2156.00
2018-07-05T06:26:51.460Z,2168.00
2018-07-05T06:27:51.204Z,2176.00
2018-07-05T06:28:51.307Z,2184.00
2018-07-05T06:29:51.251Z,2196.00
2018-07-05T06:30:51.176Z,2212.00
2018-07-05T06:31:51.835Z,2224.00
2018-07-05T06:32:51.213Z,2236.00
2018-07-05T06:33:51.235Z,2248.00
2018-07-05T06:34:51.179Z,2256.00
2018-07-05T06:35:51.512Z,2268.00
2018-07-05T06:36:50.795Z,2272.00
2018-07-05T06:37:51.204Z,2280.00
2018-07-05T06:38:51.459Z,2288.00
2018-07-05T06:39:51.241Z,2292.00
2018-07-05T06:40:51.260Z,2304.00
2018-07-05T06:41:51.480Z,2312.00
2018-07-05T06:42:51.733Z,2328.00
2018-07-05T06:43:51.945Z,2348.00
2018-07-05T06:44:51.241Z,2356.00
2018-07-05T06:45:51.753Z,2372.00
2018-07-05T06:46:51.447Z,2380.00
2018-07-05T06:47:51.964Z,2392.00
2018-07-05T06:48:51.212Z,2416.00
2018-07-05T06:49:51.211Z,2436.00
2018-07-05T06:50:51.748Z,2456.00
2018-07-05T06:51:51.321Z,2468.00
2018-07-05T06:52:53.161Z,2480.00
2018-07-05T06:53:51.272Z,2492.00
2018-07-05T06:54:51.773Z,2504.00
2018-07-05T06:55:51.250Z,2508.00
2018-07-05T06:56:51.213Z,2516.00
2018-07-05T06:57:51.231Z,2532.00
2018-07-05T06:58:51.157Z,2556.00
2018-07-05T06:59:51.749Z,2572.00
2018-07-05T07:00:51.276Z,2612.00
2018-07-05T07:01:51.498Z,2656.00
2018-07-05T07:02:50.865Z,2704.00
2018-07-05T07:03:51.551Z,2728.00
2018-07-05T07:04:51.183Z,2748.00
2018-07-05T07:05:51.879Z,2768.00
2018-07-05T07:06:51.232Z,2796.00
2018-07-05T07:07:51.246Z,2824.00
2018-07-05T07:08:51.223Z,2856.00
2018-07-05T07:09:50.899Z,2892.00
2018-07-05T07:10:51.216Z,2936.00
2018-07-05T07:11:51.280Z,2992.00
2018-07-05T07:12:51.735Z,3040.00
2018-07-05T07:13:51.306Z,3084.00
2018-07-05T07:14:51.316Z,3124.00
2018-07-05T07:15:51.460Z,3152.00
2018-07-05T07:16:51.319Z,3200.00
2018-07-05T07:17:51.752Z,3244.00
2018-07-05T07:18:51.761Z,3284.00
2018-07-05T07:19:51.752Z,3332.00
2018-07-05T07:20:51.205Z,3384.00
2018-07-05T07:21:51.234Z,3428.00
2018-07-05T07:22:51.406Z,3476.00
2018-07-05T07:23:51.506Z,3512.00
2018-07-05T07:24:51.739Z,3532.00
2018-07-05T07:25:50.951Z,3568.00
2018-07-05T07:26:51.648Z,3560.00
2018-07-05T07:27:51.507Z,3556.00
2018-07-05T07:28:50.917Z,3560.00
2018-07-05T07:29:51.235Z,3560.00
2018-07-05T07:30:51.508Z,3584.00
2018-07-05T07:31:51.429Z,3600.00
2018-07-05T07:32:51.465Z,3620.00
2018-07-05T07:33:51.226Z,3640.00
2018-07-05T07:34:51.279Z,3644.00
2018-07-05T07:35:50.984Z,3672.00
2018-07-05T07:36:51.560Z,3708.00
2018-07-05T07:37:51.148Z,3736.00
2018-07-05T07:38:51.162Z,3768.00
2018-07-05T07:39:51.767Z,3892.00
2018-07-05T07:40:51.795Z,3948.00
2018-07-05T07:41:51.274Z,3988.00
2018-07-05T07:42:51.942Z,3988.00
2018-07-05T07:43:50.984Z,4000.00
2018-07-05T07:44:51.932Z,4036.00
2018-07-05T07:45:51.008Z,4024.00
2018-07-05T07:46:51.778Z,3964.00
2018-07-05T07:47:51.867Z,3936.00
2018-07-05T07:48:51.364Z,3900.00
2018-07-05T07:49:51.373Z,3880.00
2018-07-05T07:50:51.398Z,3876.00
2018-07-05T07:51:51.404Z,3892.00
2018-07-05T07:52:51.009Z,3904.00
2018-07-05T07:53:52.278Z,3936.00
2018-07-05T07:54:51.330Z,3984.00
2018-07-05T07:55:51.333Z,4040.00
2018-07-05T07:56:51.783Z,4128.00
2018-07-05T07:57:51.403Z,4224.00
2018-07-05T07:58:51.969Z,4340.00
2018-07-05T07:59:51.910Z,4468.00
2018-07-05T08:00:51.476Z,4576.00
2018-07-05T08:01:51.077Z,4684.00
2018-07-05T08:02:51.839Z,4792.00
2018-07-05T08:03:51.797Z,4884.00
2018-07-05T08:04:51.494Z,4968.00
2018-07-05T08:05:51.181Z,5048.00
2018-07-05T08:06:51.164Z,5112.00
2018-07-05T08:07:51.779Z,5128.00
2018-07-05T08:08:51.484Z,5132.00
2018-07-05T08:09:51.477Z,5092.00
2018-07-05T08:10:51.442Z,5000.00
2018-07-05T08:11:53.136Z,4884.00
2018-07-05T08:12:51.900Z,4728.00
2018-07-05T08:13:51.351Z,4556.00
2018-07-05T08:14:52.310Z,4388.00
2018-07-05T08:15:51.448Z,4256.00
2018-07-05T08:16:51.527Z,4116.00
2018-07-05T08:17:51.381Z,3956.00
2018-07-05T08:18:51.356Z,3864.00
2018-07-05T08:19:51.415Z,3836.00
2018-07-05T08:20:51.818Z,3860.00
2018-07-05T08:21:51.393Z,3944.00
2018-07-05T08:22:51.344Z,3876.00
2018-07-05T08:23:51.009Z,3904.00
2018-07-05T08:24:51.977Z,3844.00
2018-07-05T08:25:51.074Z,3880.00
2018-07-05T08:26:51.433Z,3968.00
2018-07-05T08:27:51.872Z,4044.00
2018-07-05T08:28:51.487Z,4036.00
2018-07-05T08:29:51.563Z,3972.00
2018-07-05T08:30:51.542Z,3948.00
2018-07-05T08:31:53.443Z,3980.00
2018-07-05T08:32:51.531Z,4056.00
2018-07-05T08:33:51.128Z,4168.00
2018-07-05T08:34:51.485Z,4244.00
2018-07-05T08:35:52.289Z,4316.00
2018-07-05T08:36:52.073Z,4360.00
2018-07-05T08:37:51.500Z,4368.00
2018-07-05T08:38:51.365Z,4348.00
2018-07-05T08:39:51.357Z,4296.00
2018-07-05T08:40:51.943Z,4296.00
2018-07-05T08:41:52.073Z,4244.00
2018-07-05T08:42:51.902Z,4184.00
2018-07-05T08:43:52.148Z,4128.00
2018-07-05T08:44:52.046Z,4080.00
2018-07-05T08:45:56.044Z,4064.00
2018-07-05T08:46:51.494Z,4044.00
2018-07-05T08:48:52.851Z,4040.00
2018-07-05T08:49:51.947Z,4048.00
2018-07-05T08:50:51.609Z,4068.00
2018-07-05T08:51:51.503Z,4124.00
2018-07-05T08:52:51.564Z,4232.00
2018-07-05T08:53:52.020Z,4392.00
2018-07-05T08:54:54.724Z,4488.00
2018-07-05T08:55:53.081Z,4576.00
2018-07-05T08:56:51.820Z,4636.00
2018-07-05T08:57:51.810Z,4664.00
2018-07-05T08:58:54.685Z,4620.00
2018-07-05T08:59:51.647Z,4524.00
2018-07-05T09:00:51.749Z,4428.00
2018-07-05T09:01:52.307Z,4388.00
2018-07-05T09:02:51.791Z,4392.00
2018-07-05T09:03:51.716Z,4400.00
2018-07-05T09:04:51.783Z,4412.00
2018-07-05T09:05:52.438Z,4460.00
2018-07-05T09:06:52.041Z,4484.00
2018-07-05T09:07:52.308Z,4516.00
2018-07-05T09:08:52.760Z,4588.00
2018-07-05T09:09:51.788Z,4672.00
2018-07-05T09:10:51.746Z,4684.00
2018-07-05T09:11:53.618Z,4700.00
2018-07-05T09:12:51.814Z,4668.00
2018-07-05T09:13:51.807Z,4632.00
2018-07-05T09:14:51.807Z,4584.00
2018-07-05T09:15:52.513Z,4584.00
2018-07-05T09:16:51.799Z,4592.00
2018-07-05T09:17:52.098Z,4584.00
2018-07-05T09:18:51.805Z,4560.00
2018-07-05T09:19:51.785Z,4528.00
2018-07-05T09:20:52.010Z,4540.00
2018-07-05T09:21:52.012Z,4572.00
2018-07-05T09:22:51.819Z,4620.00
2018-07-05T09:23:52.018Z,4656.00
2018-07-05T09:24:52.300Z,4648.00
2018-07-05T09:25:51.967Z,4636.00
2018-07-05T09:26:51.721Z,4644.00
2018-07-05T09:27:52.032Z,4676.00
2018-07-05T09:28:51.757Z,4720.00
2018-07-05T09:29:52.075Z,4800.00
2018-07-05T09:30:52.006Z,4864.00
2018-07-05T09:31:52.310Z,4944.00
2018-07-05T09:32:51.787Z,4996.00
2018-07-05T09:33:51.198Z,5084.00
2018-07-05T09:34:52.417Z,5168.00
2018-07-05T09:35:52.017Z,5220.00
2018-07-05T09:36:51.797Z,5260.00
2018-07-05T09:37:52.334Z,5320.00
2018-07-05T09:38:51.751Z,5408.00
2018-07-05T09:39:52.071Z,5496.00
2018-07-05T09:40:51.794Z,5552.00
2018-07-05T09:41:51.754Z,5608.00
2018-07-05T09:42:51.961Z,5648.00
2018-07-05T09:43:51.770Z,5728.00
2018-07-05T09:44:51.794Z,5864.00
2018-07-05T09:45:51.864Z,6012.00
2018-07-05T09:46:52.358Z,6108.00
2018-07-05T09:47:51.997Z,6172.00
2018-07-05T09:48:51.316Z,6220.00
2018-07-05T09:49:51.780Z,6252.00
2018-07-05T09:50:51.811Z,6288.00
2018-07-05T09:51:52.648Z,6312.00
2018-07-05T09:52:52.390Z,6300.00
2018-07-05T09:53:51.551Z,6204.00
2018-07-05T09:54:52.063Z,6024.00
2018-07-05T09:55:51.824Z,5844.00
2018-07-05T09:56:51.792Z,5552.00
2018-07-05T09:57:51.805Z,5396.00
2018-07-05T09:58:52.079Z,5864.00
2018-07-05T09:59:51.860Z,6152.00
2018-07-05T10:00:52.050Z,6180.00
2018-07-05T10:01:52.070Z,6176.00
2018-07-05T10:02:51.874Z,6188.00
2018-07-05T10:03:51.928Z,6248.00
2018-07-05T10:04:52.314Z,6304.00
2018-07-05T10:05:51.445Z,6276.00
2018-07-05T10:06:53.042Z,6240.00
2018-07-05T10:07:53.528Z,6216.00
2018-07-05T10:08:51.812Z,6248.00
2018-07-05T10:09:51.854Z,6284.00
2018-07-05T10:10:54.052Z,6384.00
2018-07-05T10:11:51.363Z,6484.00
2018-07-05T10:12:52.327Z,6608.00
2018-07-05T10:13:53.854Z,6756.00
2018-07-05T10:15:51.479Z,6964.00
2018-07-05T10:16:52.066Z,7052.00
2018-07-05T10:17:57.834Z,7124.00
2018-07-05T10:18:52.699Z,7160.00
2018-07-05T10:19:51.595Z,7140.00
2018-07-05T10:20:52.264Z,7184.00
2018-07-05T10:21:51.845Z,7188.00
2018-07-05T10:22:51.852Z,7204.00
2018-07-05T10:23:52.532Z,7212.00
2018-07-05T10:24:51.493Z,7196.00
2018-07-05T10:25:51.855Z,7236.00
2018-07-05T10:26:51.856Z,7256.00
2018-07-05T10:27:51.837Z,7280.00
2018-07-05T10:28:52.321Z,7308.00
2018-07-05T10:29:51.830Z,7332.00
2018-07-05T10:30:52.343Z,7368.00
2018-07-05T10:31:51.865Z,7412.00
2018-07-05T10:32:51.887Z,7512.00
2018-07-05T10:33:52.335Z,7608.00
2018-07-05T10:34:51.814Z,7672.00
2018-07-05T10:35:52.467Z,7784.00
2018-07-05T10:36:51.961Z,7904.00
2018-07-05T10:37:53.053Z,7972.00
2018-07-05T10:38:52.337Z,8032.00
2018-07-05T10:39:51.872Z,8060.00
2018-07-05T10:40:53.997Z,8120.00
2018-07-05T10:41:51.931Z,8100.00
2018-07-05T10:42:51.820Z,7960.00
2018-07-05T10:43:51.828Z,8020.00
2018-07-05T10:44:52.059Z,7584.00
2018-07-05T10:45:51.826Z,7364.00
2018-07-05T10:46:51.772Z,7244.00
2018-07-05T10:47:52.331Z,7368.00
2018-07-05T10:48:51.905Z,7800.00
2018-07-05T10:49:51.897Z,7888.00
2018-07-05T10:50:51.877Z,7912.00
2018-07-05T10:51:51.861Z,7992.00
2018-07-05T10:52:52.019Z,8092.00
2018-07-05T10:53:51.877Z,8160.00
2018-07-05T10:54:52.549Z,8224.00
2018-07-05T10:55:52.057Z,8268.00
2018-07-05T10:56:51.935Z,8284.00
2018-07-05T10:57:51.952Z,8332.00
2018-07-05T10:58:51.969Z,8420.00
2018-07-05T10:59:52.420Z,8524.00
2018-07-05T11:00:52.264Z,8664.00
2018-07-05T11:01:53.790Z,8820.00
2018-07-05T11:02:52.058Z,8960.00
2018-07-05T11:03:51.631Z,9048.00
2018-07-05T11:04:52.093Z,9116.00
2018-07-05T11:05:51.705Z,9188.00
2018-07-05T11:06:53.054Z,9300.00
2018-07-05T11:07:52.151Z,9356.00
2018-07-05T11:08:52.548Z,9336.00
2018-07-05T11:09:52.068Z,9344.00
2018-07-05T11:10:52.140Z,9408.00
2018-07-05T11:11:52.501Z,9720.00
2018-07-05T11:12:52.535Z,10016.00
2018-07-05T11:13:52.552Z,10104.00
2018-07-05T11:14:53.419Z,9936.00
2018-07-05T11:15:52.161Z,9932.00
2018-07-05T11:16:52.036Z,10052.00
2018-07-05T11:17:52.005Z,10228.00
2018-07-05T11:18:52.012Z,10612.00
2018-07-05T11:19:53.433Z,10924.00
2018-07-05T11:20:52.627Z,11196.00
2018-07-05T11:21:52.453Z,11476.00
2018-07-05T11:22:52.125Z,11512.00
2018-07-05T11:23:52.131Z,11628.00
2018-07-05T11:24:52.123Z,11192.00
2018-07-05T11:25:52.129Z,10932.00
2018-07-05T11:26:52.092Z,10484.00
2018-07-05T11:27:52.075Z,10528.00
2018-07-05T11:28:52.570Z,10624.00
2018-07-05T11:29:52.542Z,10768.00
2018-07-05T11:30:52.204Z,10784.00
2018-07-05T11:31:53.606Z,10772.00
2018-07-05T11:32:52.705Z,10944.00
2018-07-05T11:33:53.135Z,11168.00
2018-07-05T11:34:52.354Z,11304.00
2018-07-05T11:35:52.325Z,11144.00
2018-07-05T11:36:52.441Z,10680.00
2018-07-05T11:37:52.553Z,11016.00
2018-07-05T11:38:52.653Z,11152.00
2018-07-05T11:39:52.418Z,11376.00
2018-07-05T11:40:51.870Z,11576.00
2018-07-05T11:41:52.363Z,11768.00
2018-07-05T11:42:52.890Z,11960.00
2018-07-05T11:43:52.078Z,12212.00
2018-07-05T11:44:52.870Z,12324.00
2018-07-05T11:45:51.814Z,11808.00
2018-07-05T11:46:52.722Z,10624.00
2018-07-05T11:47:52.149Z,11540.00
2018-07-05T11:48:52.586Z,11996.00
2018-07-05T11:49:53.078Z,12288.00
2018-07-05T11:50:51.865Z,12476.00
2018-07-05T11:51:54.413Z,12472.00
2018-07-05T11:52:52.908Z,12508.00
2018-07-05T11:53:52.533Z,12516.00
2018-07-05T11:54:53.063Z,12704.00
2018-07-05T11:55:52.596Z,12328.00
2018-07-05T11:56:52.104Z,12124.00
2018-07-05T11:57:52.331Z,11656.00
2018-07-05T11:58:53.004Z,12788.00
2018-07-05T11:59:52.898Z,12800.00
2018-07-05T12:00:52.617Z,12748.00
2018-07-05T12:01:52.401Z,12772.00
2018-07-05T12:02:51.802Z,12744.00
2018-07-05T12:03:52.617Z,12616.00
2018-07-05T12:04:52.643Z,12436.00
2018-07-05T12:05:52.598Z,12424.00
2018-07-05T12:06:51.894Z,12444.00
2018-07-05T12:07:52.636Z,12652.00
2018-07-05T12:08:52.321Z,12820.00
2018-07-05T12:09:52.396Z,12064.00
2018-07-05T12:10:52.409Z,11672.00
2018-07-05T12:11:51.900Z,12940.00
2018-07-05T12:12:52.889Z,12072.00
2018-07-05T12:13:52.498Z,12260.00
2018-07-05T12:14:52.560Z,12332.00
2018-07-05T12:15:52.337Z,12408.00
2018-07-05T12:16:52.137Z,12580.00
2018-07-05T12:17:54.521Z,12576.00
2018-07-05T12:18:52.605Z,12632.00
2018-07-05T12:19:52.348Z,12836.00
2018-07-05T12:20:52.568Z,12952.00
2018-07-05T12:21:53.040Z,13072.00
2018-07-05T12:22:54.109Z,13192.00
2018-07-05T12:23:52.556Z,13516.00
2018-07-05T12:24:52.461Z,14036.00
2018-07-05T12:25:52.595Z,14428.00
2018-07-05T12:26:52.472Z,14780.00